Time;durP1;ratioP1;P1;durP2;ratioP2;P2;SDS_P1;SDS_P2;PMS_P1;PMS_P2;Temp;Humidity;BMP_temperature;BMP_pressure;BME280_temperature;BME280_humidity;BME280_pressure;Samples;Min_cycle;Max_cycle;Signal;HPM_P1;HPM_P2
2024/02/10 00:01:03;;;;;;;18.07;4.07;;;10.60;99.90;;;;;;5057889;28;20501;-79
2024/02/10 00:03:30;;;;;;;20.60;2.90;;;10.60;99.90;;;;;;5074849;28;20183;-79
2024/02/10 00:06:00;;;;;;;15.50;3.47;;;10.50;99.90;;;;;;5074658;28;20668;-79
2024/02/10 00:08:27;;;;;;;16.10;3.10;;;10.50;99.90;;;;;;5074764;28;20329;-79
2024/02/10 00:10:56;;;;;;;18.45;3.33;;;10.50;99.90;;;;;;5074502;28;20161;-79
2024/02/10 00:13:22;;;;;;;15.05;2.80;;;10.60;99.90;;;;;;5074695;28;20160;-79
2024/02/10 00:15:49;;;;;;;16.75;2.78;;;10.60;99.90;;;;;;5057069;28;20533;-79
2024/02/10 00:18:22;;;;;;;18.90;3.50;;;10.60;99.90;;;;;;5056558;28;20196;-79
2024/02/10 00:20:50;;;;;;;14.55;3.03;;;10.60;99.90;;;;;;5074869;28;20195;-80
2024/02/10 00:23:15;;;;;;;16.20;3.03;;;10.60;99.90;;;;;;5074397;28;20160;-79
2024/02/10 00:25:41;;;;;;;17.53;2.97;;;10.60;99.90;;;;;;5074744;28;20163;-80
2024/02/10 00:28:10;;;;;;;15.27;3.47;;;10.60;99.90;;;;;;5074456;28;20271;-79
2024/02/10 00:30:37;;;;;;;17.40;3.88;;;10.60;99.90;;;;;;5056412;28;20407;-79
2024/02/10 00:33:07;;;;;;;15.80;3.50;;;10.50;99.90;;;;;;5075061;28;20214;-79
2024/02/10 00:35:33;;;;;;;18.33;3.53;;;10.50;99.90;;;;;;5074621;28;20161;-79
2024/02/10 00:37:58;;;;;;;17.17;3.40;;;10.50;99.90;;;;;;5074126;28;20208;-79
2024/02/10 00:40:24;;;;;;;17.83;3.20;;;10.50;99.90;;;;;;5056439;28;20176;-79
2024/02/10 00:42:51;;;;;;;17.07;3.47;;;10.50;99.90;;;;;;5074112;28;20180;-79
2024/02/10 00:45:17;;;;;;;15.52;3.42;;;10.50;99.90;;;;;;5073568;28;20164;-79
2024/02/10 00:47:44;;;;;;;16.03;3.60;;;10.50;99.90;;;;;;5074336;28;20203;-79
2024/02/10 00:50:18;;;;;;;21.48;4.40;;;10.50;99.90;;;;;;5056061;28;20645;-79
2024/02/10 00:52:48;;;;;;;15.93;2.90;;;10.50;99.90;;;;;;5074105;28;20243;-79
2024/02/10 00:55:14;;;;;;;14.50;2.50;;;10.40;99.90;;;;;;5055870;28;20171;-79
2024/02/10 00:57:40;;;;;;;16.93;3.00;;;10.50;99.90;;;;;;5073771;28;20553;-79
2024/02/10 01:00:11;;;;;;;14.82;2.53;;;10.50;99.90;;;;;;5074475;28;20534;-79
2024/02/10 01:02:37;;;;;;;14.60;2.17;;;10.50;99.90;;;;;;5056674;28;20621;-79
2024/02/10 01:05:05;;;;;;;16.27;3.30;;;10.50;99.90;;;;;;5074280;28;20225;-79
2024/02/10 01:07:31;;;;;;;15.57;2.58;;;10.50;99.90;;;;;;5074676;28;20534;-79
2024/02/10 01:09:56;;;;;;;14.33;2.37;;;10.50;99.90;;;;;;5074658;28;20172;-80
2024/02/10 01:12:22;;;;;;;15.00;2.23;;;10.40;99.90;;;;;;5074083;28;20173;-79
2024/02/10 01:14:48;;;;;;;14.40;2.57;;;10.50;99.90;;;;;;5056216;28;20175;-80
2024/02/10 01:17:13;;;;;;;15.00;2.43;;;10.40;99.90;;;;;;5074440;28;20184;-79
2024/02/10 01:19:51;;;;;;;14.10;2.40;;;10.40;99.90;;;;;;5074141;28;20184;-79
2024/02/10 01:22:22;;;;;;;15.48;2.58;;;10.40;99.90;;;;;;5056361;28;20640;-79
2024/02/10 01:24:53;;;;;;;16.13;2.55;;;10.40;99.90;;;;;;5073927;28;20170;-79
2024/02/10 01:27:20;;;;;;;14.27;2.30;;;10.40;99.90;;;;;;5074273;28;20181;-79
2024/02/10 01:29:47;;;;;;;16.42;2.40;;;10.40;99.90;;;;;;5074073;28;20175;-79
2024/02/10 01:32:15;;;;;;;17.00;2.95;;;10.30;99.90;;;;;;5074464;28;20165;-80
2024/02/10 01:34:41;;;;;;;14.52;2.20;;;10.30;99.90;;;;;;5055964;28;20217;-79
2024/02/10 01:37:07;;;;;;;15.17;2.50;;;10.40;99.90;;;;;;5074016;28;20243;-80
2024/02/10 01:39:33;;;;;;;14.73;2.58;;;10.30;99.90;;;;;;5074009;28;20826;-79
2024/02/10 01:41:59;;;;;;;15.43;2.60;;;10.30;99.90;;;;;;5074156;28;20164;-79
2024/02/10 01:44:25;;;;;;;14.27;2.30;;;10.30;99.90;;;;;;5074382;28;20248;-79
2024/02/10 01:46:51;;;;;;;14.70;2.40;;;10.30;99.90;;;;;;5056079;28;20160;-79
2024/02/10 01:49:17;;;;;;;14.83;2.17;;;10.30;99.90;;;;;;5074359;28;20411;-79
2024/02/10 01:51:46;;;;;;;15.02;2.30;;;10.30;99.90;;;;;;5073928;28;20161;-79
2024/02/10 01:54:11;;;;;;;13.82;2.10;;;10.30;99.90;;;;;;5073884;28;20676;-79
2024/02/10 01:56:38;;;;;;;16.70;2.80;;;10.30;99.90;;;;;;5077490;28;20176;-79
2024/02/10 01:59:06;;;;;;;14.77;2.15;;;10.30;99.90;;;;;;5078389;28;20196;-79
2024/02/10 02:01:32;;;;;;;13.80;1.95;;;10.20;99.90;;;;;;5077900;28;20161;-79
2024/02/10 02:03:57;;;;;;;14.90;2.50;;;10.30;99.90;;;;;;5078092;28;20572;-79
2024/02/10 02:06:24;;;;;;;13.57;1.87;;;10.20;99.90;;;;;;5059779;28;20417;-80
2024/02/10 02:08:51;;;;;;;14.43;2.08;;;10.20;99.90;;;;;;5077622;28;20185;-80
2024/02/10 02:11:17;;;;;;;14.32;1.95;;;10.20;99.90;;;;;;5059705;28;20200;-79
2024/02/10 02:13:42;;;;;;;15.55;2.33;;;10.20;99.90;;;;;;5077479;28;20217;-80
2024/02/10 02:16:12;;;;;;;13.70;2.13;;;10.20;99.90;;;;;;5077236;28;20177;-80
2024/02/10 02:18:39;;;;;;;14.60;2.15;;;10.20;99.90;;;;;;5077250;28;20203;-79
2024/02/10 02:21:06;;;;;;;13.95;2.05;;;10.20;99.90;;;;;;5077392;28;20161;-80
2024/02/10 02:23:35;;;;;;;14.60;2.55;;;10.20;99.90;;;;;;5059008;28;20543;-80
2024/02/10 02:26:01;;;;;;;14.90;2.65;;;10.20;99.90;;;;;;5077375;28;20187;-79
2024/02/10 02:28:26;;;;;;;14.30;2.20;;;10.20;99.90;;;;;;5076742;28;20588;-79
2024/02/10 02:30:52;;;;;;;17.00;2.20;;;10.20;99.90;;;;;;5077620;28;20169;-80
2024/02/10 02:33:18;;;;;;;13.60;2.10;;;10.20;99.90;;;;;;5077084;28;20187;-80
2024/02/10 02:35:44;;;;;;;15.70;3.63;;;10.10;99.90;;;;;;5077121;28;20169;-79
2024/02/10 02:38:13;;;;;;;14.93;2.60;;;10.10;99.90;;;;;;5076471;28;20673;-80
2024/02/10 02:40:42;;;;;;;14.63;2.72;;;10.10;99.90;;;;;;5076787;28;20507;-79
2024/02/10 02:43:08;;;;;;;20.58;3.25;;;10.10;99.90;;;;;;5076925;28;20221;-79
2024/02/10 02:45:34;;;;;;;16.45;2.72;;;10.00;99.90;;;;;;5076857;28;20164;-79
2024/02/10 02:48:04;;;;;;;15.43;2.20;;;10.00;99.90;;;;;;5076828;28;20193;-80
2024/02/10 02:50:30;;;;;;;13.68;2.15;;;10.00;99.90;;;;;;5076928;28;20293;-80
2024/02/10 02:53:02;;;;;;;14.82;2.30;;;10.00;99.90;;;;;;5076811;28;20156;-80
2024/02/10 02:55:28;;;;;;;13.80;2.25;;;9.90;99.90;;;;;;5076872;28;20225;-79
2024/02/10 02:57:55;;;;;;;13.90;2.22;;;9.90;99.90;;;;;;5076680;28;20215;-80
2024/02/10 03:00:21;;;;;;;14.40;2.10;;;9.80;99.90;;;;;;5076756;28;20185;-80
2024/02/10 03:02:48;;;;;;;16.45;2.60;;;9.80;99.90;;;;;;5076687;28;20233;-80
2024/02/10 03:05:14;;;;;;;15.15;2.55;;;9.80;99.90;;;;;;5076692;28;20156;-80
2024/02/10 03:07:47;;;;;;;13.60;1.80;;;9.70;99.90;;;;;;5075511;28;20204;-80
2024/02/10 03:10:13;;;;;;;13.70;2.15;;;9.70;99.90;;;;;;5076613;28;20149;-80
2024/02/10 03:12:41;;;;;;;14.02;1.98;;;9.60;99.90;;;;;;5076627;28;20161;-80
2024/02/10 03:15:09;;;;;;;15.60;2.50;;;9.50;99.90;;;;;;5076307;28;20192;-80
2024/02/10 03:17:36;;;;;;;13.90;2.40;;;9.50;99.90;;;;;;5076420;28;20211;-79
2024/02/10 03:20:02;;;;;;;14.30;2.50;;;9.50;99.90;;;;;;5058703;28;20193;-79
2024/02/10 03:22:28;;;;;;;14.27;2.10;;;9.50;99.90;;;;;;5075985;28;20160;-79
2024/02/10 03:24:54;;;;;;;16.47;2.40;;;9.40;99.90;;;;;;5076471;28;20160;-79
2024/02/10 03:27:21;;;;;;;14.93;3.03;;;9.50;99.90;;;;;;5076520;28;20414;-81
2024/02/10 03:29:48;;;;;;;14.82;2.55;;;9.40;99.90;;;;;;5076322;28;20164;-80
2024/02/10 03:32:14;;;;;;;14.32;2.88;;;9.40;99.90;;;;;;5076680;28;20251;-80
2024/02/10 03:34:40;;;;;;;14.52;2.05;;;9.40;99.90;;;;;;5076082;28;20264;-81
2024/02/10 03:37:06;;;;;;;15.03;2.30;;;9.40;99.90;;;;;;5076189;28;20223;-81
2024/02/10 03:39:32;;;;;;;15.93;1.83;;;9.30;99.90;;;;;;5076105;28;20200;-80
2024/02/10 03:41:58;;;;;;;16.65;2.40;;;9.20;99.90;;;;;;5076161;28;20579;-79
2024/02/10 03:44:23;;;;;;;15.70;2.60;;;9.20;99.90;;;;;;5058287;28;20168;-80
2024/02/10 03:46:53;;;;;;;14.33;2.67;;;9.20;99.90;;;;;;5075509;28;20243;-80
2024/02/10 03:49:19;;;;;;;17.30;2.88;;;9.20;99.90;;;;;;5058477;28;20242;-80
2024/02/10 03:51:45;;;;;;;17.03;2.50;;;9.20;99.90;;;;;;5075784;28;20169;-80
2024/02/10 03:54:12;;;;;;;15.10;2.90;;;9.10;99.90;;;;;;5075792;28;20161;-79
2024/02/10 03:56:41;;;;;;;17.10;2.20;;;9.10;99.90;;;;;;5075835;28;20705;-80
2024/02/10 03:59:10;;;;;;;14.65;2.47;;;9.10;99.90;;;;;;5075973;28;20192;-79
2024/02/10 04:01:35;;;;;;;15.10;2.90;;;9.10;99.90;;;;;;5075812;28;20168;-79
2024/02/10 04:04:01;;;;;;;15.03;2.20;;;9.10;99.90;;;;;;5076145;28;20171;-79
2024/02/10 04:06:28;;;;;;;17.73;3.10;;;9.00;99.90;;;;;;5057526;28;20196;-80
2024/02/10 04:08:54;;;;;;;15.82;2.60;;;9.00;99.90;;;;;;5075549;28;20445;-80
2024/02/10 04:11:20;;;;;;;14.73;2.60;;;9.00;99.90;;;;;;5075473;28;20164;-80
2024/02/10 04:13:47;;;;;;;14.43;2.90;;;9.00;99.90;;;;;;5075756;28;20164;-79
2024/02/10 04:16:13;;;;;;;15.30;2.55;;;8.90;99.90;;;;;;5075715;28;20164;-79
2024/02/10 04:18:42;;;;;;;24.57;2.93;;;8.90;99.90;;;;;;5074247;28;20271;-79
2024/02/10 04:21:09;;;;;;;16.25;2.40;;;8.90;99.90;;;;;;5076743;28;20880;-79
2024/02/10 04:23:35;;;;;;;16.65;2.72;;;8.80;99.90;;;;;;5075711;28;20160;-79
2024/02/10 04:26:04;;;;;;;15.32;3.10;;;8.80;99.90;;;;;;5057750;28;20771;-80
2024/02/10 04:28:30;;;;;;;16.42;3.05;;;8.80;99.90;;;;;;5075342;28;20784;-79
2024/02/10 04:30:56;;;;;;;17.17;2.73;;;8.80;99.90;;;;;;5076181;28;20196;-79
2024/02/10 04:33:22;;;;;;;18.53;3.30;;;8.70;99.90;;;;;;5075638;28;20640;-79
2024/02/10 04:35:48;;;;;;;16.30;3.17;;;8.70;99.90;;;;;;5074898;28;20171;-79
2024/02/10 04:38:14;;;;;;;16.35;2.60;;;8.70;99.90;;;;;;5074944;28;20196;-80
2024/02/10 04:40:40;;;;;;;14.60;2.60;;;8.70;99.90;;;;;;5056968;28;20175;-79
2024/02/10 04:43:06;;;;;;;14.47;2.70;;;8.60;99.90;;;;;;5074903;28;20486;-79
2024/02/10 04:45:34;;;;;;;15.30;3.07;;;8.60;99.90;;;;;;5074918;28;20399;-79
2024/02/10 04:48:01;;;;;;;14.95;3.08;;;8.50;99.90;;;;;;5075198;28;20476;-80
2024/02/10 04:50:28;;;;;;;18.67;3.17;;;8.60;99.90;;;;;;5074920;28;20164;-79
2024/02/10 04:52:55;;;;;;;16.40;2.78;;;8.50;99.90;;;;;;5074710;28;20649;-79
2024/02/10 04:55:21;;;;;;;14.15;2.80;;;8.50;99.90;;;;;;5056696;28;20183;-80
2024/02/10 04:57:49;;;;;;;14.77;2.10;;;8.50;99.90;;;;;;5074928;28;20211;-79
2024/02/10 05:00:16;;;;;;;14.90;2.72;;;8.50;99.90;;;;;;5056740;28;20700;-79
2024/02/10 05:02:43;;;;;;;14.93;2.58;;;8.50;99.90;;;;;;5074579;28;20165;-79
2024/02/10 05:05:10;;;;;;;16.23;3.35;;;8.40;99.90;;;;;;5074830;28;20167;-79
2024/02/10 05:07:47;;;;;;;15.68;3.13;;;8.40;99.90;;;;;;5074584;28;20191;-79
2024/02/10 05:10:18;;;;;;;16.23;3.35;;;8.40;99.90;;;;;;5074650;28;20149;-79
2024/02/10 05:12:48;;;;;;;17.23;3.13;;;8.40;99.90;;;;;;5056599;28;20157;-79
2024/02/10 05:15:18;;;;;;;16.80;3.42;;;8.40;99.90;;;;;;5074731;28;20518;-79
2024/02/10 05:17:44;;;;;;;16.00;3.00;;;8.40;99.90;;;;;;5074640;28;20279;-79
2024/02/10 05:20:17;;;;;;;15.77;2.80;;;8.20;99.90;;;;;;5074735;28;20270;-79
2024/02/10 05:22:43;;;;;;;14.70;2.80;;;8.20;99.90;;;;;;5074742;28;20168;-79
2024/02/10 05:25:11;;;;;;;18.55;2.88;;;8.10;99.90;;;;;;5056178;28;20263;-81
2024/02/10 05:27:38;;;;;;;14.95;3.22;;;8.10;99.90;;;;;;5074301;28;20180;-79
2024/02/10 05:30:05;;;;;;;15.80;3.40;;;8.10;99.90;;;;;;5075672;28;20529;-80
2024/02/10 05:32:30;;;;;;;15.75;3.72;;;8.10;99.90;;;;;;5060781;28;20171;-79
2024/02/10 05:34:56;;;;;;;20.30;3.53;;;8.10;99.90;;;;;;5078656;28;20165;-79
2024/02/10 05:37:22;;;;;;;15.60;3.20;;;8.20;99.90;;;;;;5078483;28;20226;-79
2024/02/10 05:39:47;;;;;;;17.10;3.37;;;8.20;99.90;;;;;;5078671;28;20192;-79
2024/02/10 05:42:13;;;;;;;18.77;3.60;;;8.20;99.90;;;;;;5079486;28;20160;-79
2024/02/10 05:44:40;;;;;;;15.93;3.70;;;8.20;99.90;;;;;;5060777;28;20246;-79
2024/02/10 05:47:06;;;;;;;17.95;2.70;;;8.10;99.90;;;;;;5078647;28;20601;-80
2024/02/10 05:49:34;;;;;;;18.83;4.00;;;8.20;99.90;;;;;;5060532;28;20168;-79
2024/02/10 05:52:00;;;;;;;17.42;3.80;;;8.20;99.90;;;;;;5060631;28;20172;-81
2024/02/10 05:54:29;;;;;;;16.00;3.47;;;8.20;99.90;;;;;;5079179;28;20580;-79
2024/02/10 05:56:54;;;;;;;15.70;3.70;;;8.20;99.90;;;;;;5079111;28;20807;-79
2024/02/10 05:59:20;;;;;;;19.80;4.10;;;8.20;99.90;;;;;;5078760;28;20237;-79
2024/02/10 06:01:47;;;;;;;15.97;3.53;;;8.10;99.90;;;;;;5078512;28;20441;-79
2024/02/10 06:04:13;;;;;;;16.15;3.80;;;8.10;99.90;;;;;;5077893;28;20568;-80
2024/02/10 06:06:45;;;;;;;15.70;4.05;;;8.10;99.90;;;;;;5078253;28;20168;-79
2024/02/10 06:09:10;;;;;;;15.90;3.50;;;8.10;99.90;;;;;;5078475;28;20291;-79
2024/02/10 06:11:36;;;;;;;16.03;4.10;;;8.00;99.90;;;;;;5078187;28;20188;-79
2024/02/10 06:14:04;;;;;;;17.30;4.07;;;8.00;99.90;;;;;;5078086;28;20239;-79
2024/02/10 06:16:30;;;;;;;18.02;3.80;;;8.00;99.90;;;;;;5060126;28;20218;-79
2024/02/10 06:18:58;;;;;;;18.02;4.50;;;8.00;99.90;;;;;;5077791;28;20222;-79
2024/02/10 06:21:23;;;;;;;18.17;4.38;;;8.00;99.90;;;;;;5077913;28;20180;-79
2024/02/10 06:23:50;;;;;;;15.13;3.27;;;8.10;99.90;;;;;;5078615;28;20194;-80
2024/02/10 06:26:16;;;;;;;16.92;4.10;;;8.10;99.90;;;;;;5061038;28;20194;-81
2024/02/10 06:28:42;;;;;;;15.70;3.92;;;8.10;99.90;;;;;;5080064;28;20653;-80
2024/02/10 06:31:14;;;;;;;18.23;4.40;;;8.10;99.90;;;;;;5079478;28;20173;-79
2024/02/10 06:33:40;;;;;;;16.70;4.18;;;8.00;99.90;;;;;;5079442;28;20153;-80
2024/02/10 06:36:05;;;;;;;17.93;4.30;;;8.00;99.90;;;;;;5079517;28;20203;-79
2024/02/10 06:38:34;;;;;;;16.27;4.60;;;8.00;99.90;;;;;;5079952;28;20204;-80
2024/02/10 06:41:01;;;;;;;17.27;4.35;;;8.00;99.90;;;;;;5078493;28;20157;-79
2024/02/10 06:43:27;;;;;;;16.70;4.10;;;8.00;99.90;;;;;;5078154;28;20703;-80
2024/02/10 06:45:52;;;;;;;16.40;3.97;;;8.00;99.90;;;;;;5061275;28;20157;-80
2024/02/10 06:48:19;;;;;;;18.00;4.47;;;8.00;99.90;;;;;;5078538;28;20561;-79
2024/02/10 06:50:45;;;;;;;17.55;3.67;;;8.00;99.90;;;;;;5078883;28;20165;-80
2024/02/10 06:53:11;;;;;;;16.40;3.65;;;8.00;99.90;;;;;;5078669;28;20160;-80
2024/02/10 06:55:37;;;;;;;16.37;3.87;;;8.00;99.90;;;;;;5079365;28;20530;-80
2024/02/10 06:58:03;;;;;;;16.75;3.70;;;7.90;99.90;;;;;;5077885;28;20414;-79
2024/02/10 07:00:38;;;;;;;19.73;5.13;;;8.00;99.90;;;;;;5078471;28;20192;-80
2024/02/10 07:03:04;;;;;;;17.85;4.15;;;8.00;99.90;;;;;;5079051;28;20382;-81
2024/02/10 07:05:29;;;;;;;20.98;3.70;;;7.90;99.90;;;;;;5079388;28;20169;-81
2024/02/10 07:07:55;;;;;;;17.20;4.13;;;8.00;99.90;;;;;;5078409;28;20608;-80
2024/02/10 07:10:23;;;;;;;19.97;4.50;;;8.00;99.90;;;;;;5078367;28;20560;-79
2024/02/10 07:12:55;;;;;;;18.75;5.15;;;8.00;99.90;;;;;;5077660;28;20485;-80
2024/02/10 07:15:23;;;;;;;18.65;4.90;;;8.00;99.90;;;;;;5078140;28;20518;-80
2024/02/10 07:17:50;;;;;;;16.05;4.22;;;8.00;99.90;;;;;;5060325;28;20196;-80
2024/02/10 07:20:20;;;;;;;17.70;4.30;;;8.00;99.90;;;;;;5077137;28;20188;-80
2024/02/10 07:22:52;;;;;;;18.63;4.20;;;8.00;99.90;;;;;;5059142;28;20572;-79
2024/02/10 07:25:37;;;;;;;17.45;4.70;;;8.00;99.90;;;;;;5077852;28;20598;-80
2024/02/10 07:28:04;;;;;;;18.23;5.25;;;8.00;99.90;;;;;;5076953;28;20218;-80
2024/02/10 07:30:33;;;;;;;20.15;5.00;;;8.00;99.90;;;;;;5076693;28;20164;-79
2024/02/10 07:33:08;;;;;;;16.58;4.65;;;8.00;99.90;;;;;;5077498;28;20164;-79
2024/02/10 07:35:34;;;;;;;19.20;4.53;;;8.00;99.90;;;;;;5078485;28;20617;-80
2024/02/10 07:38:02;;;;;;;18.25;5.03;;;8.10;99.90;;;;;;5078672;28;20257;-80
2024/02/10 07:40:28;;;;;;;17.85;5.57;;;8.10;99.90;;;;;;5078650;28;20245;-80
2024/02/10 07:42:54;;;;;;;16.35;4.45;;;8.10;99.90;;;;;;5079141;28;20167;-80
2024/02/10 07:45:22;;;;;;;21.55;5.40;;;8.10;99.90;;;;;;5079296;28;20507;-80
2024/02/10 07:47:49;;;;;;;18.92;5.40;;;8.20;99.90;;;;;;5061365;28;20184;-80
2024/02/10 07:50:15;;;;;;;18.38;4.80;;;8.10;99.90;;;;;;5079308;28;20168;-80
2024/02/10 07:52:45;;;;;;;17.97;5.30;;;8.10;99.90;;;;;;5061848;28;20170;-80
2024/02/10 07:55:12;;;;;;;17.67;4.47;;;8.20;99.90;;;;;;5080469;28;20161;-81
2024/02/10 07:57:39;;;;;;;17.88;4.88;;;8.20;99.90;;;;;;5061833;28;20211;-80
2024/02/10 08:00:06;;;;;;;19.08;4.90;;;8.20;99.90;;;;;;5079600;28;20196;-81
2024/02/10 08:02:32;;;;;;;19.52;5.05;;;8.20;99.90;;;;;;5080582;28;20161;-81
2024/02/10 08:04:59;;;;;;;18.75;4.32;;;8.30;99.90;;;;;;5080506;28;20568;-80
2024/02/10 08:07:32;;;;;;;19.42;4.00;;;8.40;99.90;;;;;;5061369;28;20601;-80
2024/02/10 08:09:59;;;;;;;16.52;4.05;;;8.50;99.90;;;;;;5078920;28;20175;-81
2024/02/10 08:12:26;;;;;;;23.40;5.22;;;8.60;99.90;;;;;;5079868;28;20188;-80
2024/02/10 08:14:53;;;;;;;17.70;4.63;;;8.60;99.90;;;;;;5062387;28;20188;-81
2024/02/10 08:17:20;;;;;;;16.38;3.70;;;8.60;99.90;;;;;;5061674;28;20279;-80
2024/02/10 08:19:50;;;;;;;17.40;4.55;;;8.70;99.90;;;;;;5078289;28;20220;-81
2024/02/10 08:22:17;;;;;;;17.95;4.60;;;8.70;99.90;;;;;;5078270;28;20248;-80
2024/02/10 08:24:47;;;;;;;15.52;3.72;;;8.80;99.90;;;;;;5078433;28;20176;-80
2024/02/10 08:27:15;;;;;;;20.27;5.22;;;8.90;99.90;;;;;;5078675;28;20173;-80
2024/02/10 08:29:42;;;;;;;20.08;4.95;;;8.90;99.90;;;;;;5078437;28;20263;-80
2024/02/10 08:32:13;;;;;;;17.30;4.57;;;9.00;99.90;;;;;;5077122;28;20164;-80
2024/02/10 08:34:42;;;;;;;19.35;5.00;;;9.10;99.90;;;;;;5059734;28;20168;-80
2024/02/10 08:37:09;;;;;;;18.77;4.25;;;9.10;99.90;;;;;;5077202;28;20184;-80
2024/02/10 08:39:36;;;;;;;19.80;5.50;;;9.20;99.90;;;;;;5077723;28;20211;-81
2024/02/10 08:42:05;;;;;;;18.08;5.10;;;9.20;99.90;;;;;;5060370;28;20160;-80
2024/02/10 08:44:32;;;;;;;18.58;4.78;;;9.30;99.90;;;;;;5077577;28;20558;-81
2024/02/10 08:47:03;;;;;;;17.10;4.30;;;9.40;99.90;;;;;;5079011;28;20184;-80
2024/02/10 08:49:32;;;;;;;19.10;4.60;;;9.50;99.90;;;;;;5077932;28;20148;-80
2024/02/10 08:51:58;;;;;;;17.17;4.35;;;9.50;99.90;;;;;;5078464;28;20226;-80
2024/02/10 08:54:30;;;;;;;16.77;3.50;;;9.60;99.90;;;;;;5078856;28;20165;-80
2024/02/10 08:56:58;;;;;;;16.90;4.03;;;9.60;99.90;;;;;;5060750;28;20407;-80
2024/02/10 08:59:24;;;;;;;16.02;3.20;;;9.70;99.90;;;;;;5079508;28;20196;-80
2024/02/10 09:01:50;;;;;;;16.03;3.67;;;9.70;99.90;;;;;;5061724;28;20165;-81
2024/02/10 09:04:15;;;;;;;16.30;3.40;;;9.80;99.90;;;;;;5078431;28;20188;-80
2024/02/10 09:06:43;;;;;;;16.87;3.20;;;9.90;99.90;;;;;;5077317;28;20573;-80
2024/02/10 09:09:10;;;;;;;16.42;3.70;;;9.90;99.90;;;;;;5078109;28;20174;-80
2024/02/10 09:11:39;;;;;;;17.77;3.45;;;10.00;99.90;;;;;;5077347;28;20169;-80
2024/02/10 09:14:08;;;;;;;18.05;4.00;;;10.00;99.90;;;;;;5077363;28;20160;-80
2024/02/10 09:16:34;;;;;;;16.45;3.35;;;10.10;99.90;;;;;;5078414;28;20243;-80
2024/02/10 09:19:00;;;;;;;15.60;3.43;;;10.10;99.90;;;;;;5079677;28;20226;-80
2024/02/10 09:21:25;;;;;;;15.20;3.60;;;10.20;99.90;;;;;;5060359;28;20259;-80
2024/02/10 09:23:51;;;;;;;15.53;3.10;;;10.20;99.90;;;;;;5079963;28;20403;-80
2024/02/10 09:26:18;;;;;;;17.33;3.90;;;10.30;99.90;;;;;;5078371;28;20637;-80
2024/02/10 09:28:47;;;;;;;16.10;3.67;;;10.30;99.90;;;;;;5079010;28;20180;-80
2024/02/10 09:31:13;;;;;;;16.23;3.85;;;10.40;99.90;;;;;;5078552;28;20168;-80
2024/02/10 09:33:39;;;;;;;16.38;3.55;;;10.40;99.90;;;;;;5078584;28;20161;-80
2024/02/10 09:36:11;;;;;;;17.63;3.20;;;10.40;99.90;;;;;;5078614;28;20263;-80
2024/02/10 09:38:39;;;;;;;15.98;3.72;;;10.50;99.90;;;;;;5077684;28;20700;-80
2024/02/10 09:41:07;;;;;;;16.88;4.20;;;10.50;99.90;;;;;;5078289;28;20228;-80
2024/02/10 09:43:36;;;;;;;17.60;4.22;;;10.60;99.90;;;;;;5078483;28;20163;-81
2024/02/10 09:46:11;;;;;;;16.80;3.42;;;10.60;99.90;;;;;;5078983;28;20156;-80
2024/02/10 09:48:47;;;;;;;16.42;3.92;;;10.60;99.90;;;;;;5078290;28;20195;-81
2024/02/10 09:51:13;;;;;;;16.25;3.30;;;10.70;99.90;;;;;;5061298;28;20152;-81
2024/02/10 09:53:42;;;;;;;17.02;3.53;;;10.80;99.90;;;;;;5078132;28;20177;-80
2024/02/10 09:56:13;;;;;;;18.02;3.15;;;10.90;99.90;;;;;;5060761;28;20169;-80
2024/02/10 09:58:46;;;;;;;16.55;3.45;;;11.00;99.90;;;;;;5060220;28;20192;-81
2024/02/10 10:01:13;;;;;;;15.90;3.20;;;11.00;99.90;;;;;;5078531;28;20141;-80
2024/02/10 10:03:39;;;;;;;15.10;2.65;;;11.10;99.90;;;;;;5079765;28;20180;-80
2024/02/10 10:06:12;;;;;;;14.75;2.90;;;11.20;99.90;;;;;;5077525;28;20169;-80
2024/02/10 10:08:42;;;;;;;15.30;2.80;;;11.30;99.90;;;;;;5058961;28;20212;-80
2024/02/10 10:11:11;;;;;;;16.38;2.78;;;11.30;99.90;;;;;;5077743;28;20172;-81
2024/02/10 10:13:38;;;;;;;14.55;3.00;;;11.40;99.90;;;;;;5076328;28;20255;-81
2024/02/10 10:16:07;;;;;;;14.32;2.40;;;11.60;99.90;;;;;;5075380;28;20179;-80
2024/02/10 10:18:35;;;;;;;15.65;2.40;;;11.70;99.90;;;;;;5078183;28;20196;-80
2024/02/10 10:21:04;;;;;;;14.02;2.20;;;11.80;99.90;;;;;;5061154;28;20171;-81
2024/02/10 10:23:31;;;;;;;14.55;2.47;;;12.00;99.90;;;;;;5083896;28;20626;-81
2024/02/10 10:25:57;;;;;;;14.38;2.30;;;12.00;99.90;;;;;;5066484;28;20188;-82
2024/02/10 10:28:23;;;;;;;14.80;2.30;;;12.10;99.90;;;;;;5082401;28;20189;-80
2024/02/10 10:30:49;;;;;;;14.02;2.08;;;12.30;99.90;;;;;;5084421;28;20256;-81
2024/02/10 10:33:18;;;;;;;17.30;2.30;;;12.50;99.90;;;;;;5085915;28;20165;-82
2024/02/10 10:35:47;;;;;;;14.20;2.42;;;12.40;99.90;;;;;;5085936;28;20418;-81
2024/02/10 10:38:14;;;;;;;14.45;2.10;;;12.40;99.90;;;;;;5084832;28;20196;-81
2024/02/10 10:40:42;;;;;;;13.93;2.00;;;12.40;99.90;;;;;;5086172;28;20160;-81
2024/02/10 10:43:11;;;;;;;14.60;2.65;;;12.60;99.90;;;;;;5087095;28;20161;-81
2024/02/10 10:45:38;;;;;;;14.05;2.05;;;12.60;99.90;;;;;;5068256;28;20169;-82
2024/02/10 10:48:05;;;;;;;13.88;2.28;;;12.70;99.90;;;;;;5085803;28;20557;-82
2024/02/10 10:50:31;;;;;;;15.80;2.55;;;12.90;99.90;;;;;;5085128;28;20157;-81
2024/02/10 10:53:09;;;;;;;16.52;2.63;;;12.90;99.90;;;;;;5085542;28;20160;-81
2024/02/10 10:55:53;;;;;;;14.48;1.98;;;13.20;99.90;;;;;;5086003;28;20216;-81
2024/02/10 10:58:32;;;;;;;14.70;2.40;;;13.30;99.90;;;;;;5085828;28;20287;-81
2024/02/10 11:00:59;;;;;;;16.20;2.15;;;13.30;99.90;;;;;;5086024;28;20176;-81
2024/02/10 11:03:25;;;;;;;14.45;2.47;;;13.40;99.90;;;;;;5084762;28;20168;-81
2024/02/10 11:05:51;;;;;;;15.02;2.40;;;13.40;99.90;;;;;;5085151;28;20589;-82
2024/02/10 11:08:27;;;;;;;14.07;1.97;;;13.40;99.90;;;;;;5085254;28;20200;-81
2024/02/10 11:11:01;;;;;;;14.13;2.13;;;13.30;99.90;;;;;;5085547;28;20208;-81
2024/02/10 11:13:28;;;;;;;17.02;2.40;;;13.20;99.90;;;;;;5085082;28;20160;-82
2024/02/10 11:16:15;;;;;;;14.40;2.53;;;13.10;99.90;;;;;;5084812;28;20220;-83
2024/02/10 11:18:44;;;;;;;14.23;2.22;;;13.10;99.90;;;;;;5068012;28;20196;-82
2024/02/10 11:21:16;;;;;;;14.07;1.90;;;13.10;99.90;;;;;;5051128;28;20163;-81
2024/02/10 11:23:42;;;;;;;15.90;2.47;;;13.00;99.90;;;;;;5086899;28;20138;-83
2024/02/10 11:26:10;;;;;;;16.00;1.90;;;13.10;99.90;;;;;;5069273;28;20231;-83
2024/02/10 11:28:37;;;;;;;13.80;1.60;;;13.30;99.90;;;;;;5085902;28;20188;-83
2024/02/10 11:31:09;;;;;;;14.68;2.13;;;13.20;99.90;;;;;;5087186;28;20161;-83
2024/02/10 11:33:35;;;;;;;13.52;2.00;;;13.20;99.90;;;;;;5085665;28;20495;-83
2024/02/10 11:36:00;;;;;;;13.50;1.67;;;13.20;99.90;;;;;;5085238;28;20179;-82
2024/02/10 11:38:27;;;;;;;14.53;2.53;;;13.20;99.90;;;;;;5083755;28;20229;-82
2024/02/10 11:40:53;;;;;;;14.00;1.90;;;13.30;99.90;;;;;;5085131;28;20157;-83
2024/02/10 11:43:19;;;;;;;14.37;2.23;;;13.30;99.90;;;;;;5085795;28;20183;-82
2024/02/10 11:45:45;;;;;;;14.57;2.05;;;13.40;99.90;;;;;;5086592;28;20172;-82
2024/02/10 11:48:12;;;;;;;14.33;2.40;;;13.40;99.90;;;;;;5086612;28;20653;-82
2024/02/10 11:50:48;;;;;;;15.80;2.50;;;13.30;99.90;;;;;;5086763;28;20426;-83
2024/02/10 11:53:19;;;;;;;14.18;2.25;;;13.20;99.90;;;;;;5068957;28;20224;-82
2024/02/10 11:55:47;;;;;;;15.90;2.00;;;13.10;99.90;;;;;;5086356;28;20241;-82
2024/02/10 11:58:18;;;;;;;15.05;2.47;;;13.10;99.90;;;;;;5069376;28;20218;-83
2024/02/10 12:00:44;;;;;;;15.00;2.50;;;13.00;99.90;;;;;;5085327;28;20148;-83
2024/02/10 12:03:20;;;;;;;14.02;2.20;;;13.10;99.90;;;;;;5086399;28;20172;-82
2024/02/10 12:05:46;;;;;;;14.85;1.98;;;13.10;99.90;;;;;;5087927;28;20141;-83
2024/02/10 12:08:12;;;;;;;18.85;2.25;;;13.10;99.90;;;;;;5087170;28;20182;-82
2024/02/10 12:10:39;;;;;;;16.40;2.20;;;13.30;99.90;;;;;;5087959;28;20188;-82
2024/02/10 12:13:11;;;;;;;14.43;2.15;;;13.30;99.90;;;;;;5068550;28;20671;-83
2024/02/10 12:15:40;;;;;;;13.65;1.55;;;13.20;99.90;;;;;;5085899;28;20179;-82
2024/02/10 12:18:08;;;;;;;14.27;2.00;;;13.20;99.90;;;;;;5087002;28;20244;-83
2024/02/10 12:20:37;;;;;;;14.02;1.80;;;13.10;99.90;;;;;;5070132;28;20189;-83
2024/02/10 12:23:03;;;;;;;14.77;2.50;;;13.10;99.90;;;;;;5087615;28;20187;-82
2024/02/10 12:25:29;;;;;;;13.82;1.83;;;13.10;99.90;;;;;;5086547;28;20764;-82
2024/02/10 12:27:57;;;;;;;13.40;1.70;;;13.10;99.90;;;;;;5085303;28;20255;-84
2024/02/10 12:30:22;;;;;;;14.15;1.83;;;13.20;99.90;;;;;;5087237;28;20160;-83
2024/02/10 12:32:51;;;;;;;13.77;1.80;;;13.10;99.90;;;;;;5086628;28;20187;-83
2024/02/10 12:35:17;;;;;;;14.00;1.90;;;13.00;99.90;;;;;;5086651;28;20160;-83
2024/02/10 12:37:49;;;;;;;17.65;1.70;;;13.00;99.90;;;;;;5067787;28;20256;-82
2024/02/10 12:40:18;;;;;;;14.07;1.50;;;13.00;99.90;;;;;;5063177;28;20196;-82
2024/02/10 12:42:43;;;;;;;13.60;1.73;;;12.90;99.90;;;;;;5080911;28;20157;-83